createdAt,value
2022-11-12T00:05:01.255Z,12.18
2022-11-12T00:12:21.406Z,12.13
2022-11-12T00:19:41.658Z,12.07
2022-11-12T00:27:01.925Z,12.02
2022-11-12T00:34:22.114Z,11.95
2022-11-12T00:41:42.387Z,11.87
2022-11-12T00:49:02.658Z,11.79
2022-11-12T00:56:25.941Z,11.73
2022-11-12T01:03:46.009Z,11.64
2022-11-12T01:11:10.863Z,11.56
2022-11-12T01:18:30.963Z,11.49
2022-11-12T01:25:51.203Z,11.44
2022-11-12T01:33:11.577Z,11.36
2022-11-12T01:40:34.756Z,11.32
2022-11-12T01:47:54.741Z,11.24
2022-11-12T01:55:17.198Z,11.17
2022-11-12T02:02:37.924Z,11.16
2022-11-12T02:09:59.411Z,11.18
2022-11-12T02:17:19.365Z,11.22
2022-11-12T02:24:39.713Z,11.21
2022-11-12T02:32:00.152Z,11.20
2022-11-12T02:39:20.541Z,11.20
2022-11-12T02:46:41.137Z,11.19
2022-11-12T02:54:01.359Z,11.20
2022-11-12T03:01:21.714Z,11.24
2022-11-12T03:08:41.825Z,11.22
2022-11-12T03:16:02.162Z,11.21
2022-11-12T03:23:22.498Z,11.23
2022-11-12T03:30:43.153Z,11.21
2022-11-12T03:38:03.091Z,11.17
2022-11-12T03:45:24.207Z,11.13
2022-11-12T03:52:48.315Z,11.06
2022-11-12T04:00:09.115Z,11.00
2022-11-12T04:07:47.411Z,10.91
2022-11-12T04:15:08.066Z,10.82
2022-11-12T04:22:28.184Z,10.76
2022-11-12T04:30:06.999Z,10.69
2022-11-12T04:37:28.297Z,10.62
2022-11-12T04:45:04.680Z,10.55
2022-11-12T04:52:25.247Z,10.48
2022-11-12T04:59:45.964Z,10.41
2022-11-12T05:07:06.084Z,10.36
2022-11-12T05:14:25.956Z,10.28
2022-11-12T05:22:04.807Z,10.23
2022-11-12T05:29:25.110Z,10.15
2022-11-12T05:36:45.356Z,10.03
2022-11-12T05:44:05.777Z,10.03
2022-11-12T05:51:25.788Z,9.97
2022-11-12T05:58:46.034Z,9.88
2022-11-12T06:06:06.579Z,9.80
2022-11-12T06:13:26.875Z,9.74
2022-11-12T06:21:06.988Z,9.72
2022-11-12T06:28:27.455Z,9.67
2022-11-12T06:35:47.968Z,9.60
2022-11-12T06:43:08.261Z,9.54
2022-11-12T06:50:28.527Z,9.46
2022-11-12T06:57:52.574Z,9.43
2022-11-12T07:05:12.544Z,9.40
2022-11-12T07:12:32.933Z,9.43
2022-11-12T07:19:53.058Z,9.51
2022-11-12T07:27:13.328Z,9.64
2022-11-12T07:34:33.570Z,9.80
2022-11-12T07:41:53.947Z,9.95
2022-11-12T07:49:15.417Z,10.14
2022-11-12T07:56:35.228Z,10.34
2022-11-12T08:03:55.442Z,10.57
2022-11-12T08:11:15.696Z,10.78
2022-11-12T08:18:36.085Z,10.93
2022-11-12T08:26:00.434Z,11.05
2022-11-12T08:33:20.293Z,11.18
2022-11-12T08:40:40.708Z,11.25
2022-11-12T08:48:05.292Z,11.41
2022-11-12T08:55:25.158Z,11.43
2022-11-12T09:02:45.401Z,11.54
2022-11-12T09:10:06.205Z,11.65
2022-11-12T09:17:29.061Z,11.73
2022-11-12T09:24:49.361Z,11.93
2022-11-12T09:32:09.713Z,12.38
2022-11-12T09:39:29.922Z,12.81
2022-11-12T09:46:53.826Z,12.91
2022-11-12T09:54:46.445Z,12.99
2022-11-12T10:02:32.846Z,13.18
2022-11-12T10:10:01.347Z,13.59
2022-11-12T10:17:41.727Z,13.98
2022-11-12T10:25:14.702Z,14.26
2022-11-12T10:32:35.167Z,14.28
2022-11-12T10:39:55.313Z,14.64
2022-11-12T10:47:26.381Z,14.96
2022-11-12T10:54:49.659Z,15.27
2022-11-12T11:02:17.665Z,15.27
2022-11-12T11:09:37.712Z,15.39
2022-11-12T11:17:08.321Z,15.57
2022-11-12T11:24:54.369Z,16.10
2022-11-12T11:32:53.744Z,16.19
2022-11-12T11:40:15.977Z,16.13
2022-11-12T11:47:59.487Z,15.93
2022-11-12T11:55:20.651Z,15.78
2022-11-12T12:03:12.929Z,15.57
2022-11-12T12:11:10.730Z,15.47
2022-11-12T12:18:51.268Z,15.32
2022-11-12T12:26:14.601Z,15.30
2022-11-12T12:33:43.808Z,15.39
2022-11-12T12:41:16.151Z,14.81
2022-11-12T12:48:38.598Z,15.02
2022-11-12T12:56:05.916Z,15.18
2022-11-12T13:03:44.914Z,14.82
2022-11-12T13:11:05.302Z,14.74
2022-11-12T13:18:37.738Z,14.77
2022-11-12T13:26:36.504Z,14.76
2022-11-12T13:33:56.565Z,14.68
2022-11-12T13:41:41.529Z,14.68
2022-11-12T13:49:14.970Z,14.67
2022-11-12T13:56:35.654Z,14.66
2022-11-12T14:03:56.129Z,14.58
2022-11-12T14:11:41.942Z,14.54
2022-11-12T14:19:26.438Z,14.54
2022-11-12T14:26:46.434Z,14.49
2022-11-12T14:34:22.372Z,14.46
2022-11-12T14:41:42.705Z,14.33
2022-11-12T14:49:03.531Z,14.23
2022-11-12T14:56:38.222Z,14.14
2022-11-12T15:04:13.314Z,14.07
2022-11-12T15:11:33.166Z,13.97
2022-11-12T15:19:25.960Z,13.87
2022-11-12T15:26:47.709Z,13.83
2022-11-12T15:34:30.266Z,13.75
2022-11-12T15:42:04.441Z,13.67
2022-11-12T15:49:24.746Z,13.58
2022-11-12T15:56:45.097Z,13.52
2022-11-12T16:04:05.221Z,13.41
2022-11-12T16:11:37.588Z,13.30
2022-11-12T16:18:57.465Z,13.20
2022-11-12T16:26:21.298Z,13.10
2022-11-12T16:33:41.591Z,13.01
2022-11-12T16:41:01.883Z,12.92
2022-11-12T16:48:22.320Z,12.82
2022-11-12T16:55:42.568Z,12.74
2022-11-12T17:03:03.052Z,12.68
2022-11-12T17:10:24.009Z,12.60
2022-11-12T17:17:44.148Z,12.52
2022-11-12T17:25:05.819Z,12.46
2022-11-12T17:32:26.093Z,12.41
2022-11-12T17:39:46.427Z,12.36
2022-11-12T17:47:06.789Z,12.29
2022-11-12T17:54:26.915Z,12.21
2022-11-12T18:01:47.166Z,12.13
2022-11-12T18:09:08.604Z,12.05
2022-11-12T18:16:28.775Z,12.00
2022-11-12T18:23:48.923Z,11.91
2022-11-12T18:31:11.067Z,11.84
2022-11-12T18:38:34.784Z,11.77
2022-11-12T18:45:55.936Z,11.70
2022-11-12T18:53:17.002Z,11.62
2022-11-12T19:00:37.277Z,11.57
2022-11-12T19:07:57.609Z,11.53
2022-11-12T19:15:19.059Z,11.54
2022-11-12T19:22:41.713Z,11.53
2022-11-12T19:30:03.501Z,11.57
2022-11-12T19:37:39.093Z,11.62
2022-11-12T19:44:59.067Z,11.67
2022-11-12T19:52:19.600Z,11.70
2022-11-12T19:59:42.768Z,11.74
2022-11-12T20:07:02.852Z,11.78
2022-11-12T20:14:22.793Z,11.85
2022-11-12T20:21:42.989Z,11.90
2022-11-12T20:29:03.326Z,11.94
2022-11-12T20:36:23.913Z,12.00
2022-11-12T20:43:44.236Z,12.03
2022-11-12T20:51:28.652Z,12.08
2022-11-12T20:58:49.263Z,12.11
2022-11-12T21:06:11.660Z,12.10
2022-11-12T21:13:33.586Z,12.15
2022-11-12T21:21:09.764Z,12.10
2022-11-12T21:28:31.103Z,12.13
2022-11-12T21:35:54.097Z,12.15
2022-11-12T21:43:14.434Z,12.16
2022-11-12T21:50:34.875Z,12.18
2022-11-12T21:57:55.077Z,12.22
2022-11-12T22:05:15.417Z,12.22
2022-11-12T22:12:35.662Z,12.19
2022-11-12T22:19:55.853Z,12.12
2022-11-12T22:27:16.178Z,12.11
2022-11-12T22:34:36.454Z,12.13
2022-11-12T22:41:56.919Z,12.11
2022-11-12T22:49:17.121Z,12.13
2022-11-12T22:56:39.044Z,12.16
2022-11-12T23:04:00.591Z,12.16
2022-11-12T23:11:21.010Z,12.18
2022-11-12T23:18:41.102Z,12.19
2022-11-12T23:26:28.682Z,12.23
2022-11-12T23:33:49.883Z,12.19
2022-11-12T23:41:10.798Z,12.16
2022-11-12T23:48:31.313Z,12.22
2022-11-12T23:55:52.168Z,12.27
